createdAt,value
2018-12-04T00:00:39.646Z,0
2018-12-04T00:01:39.636Z,0
2018-12-04T00:02:39.630Z,0
2018-12-04T00:03:39.616Z,0
2018-12-04T00:04:39.607Z,0
2018-12-04T00:05:39.596Z,0
2018-12-04T00:06:39.592Z,0
2018-12-04T00:07:39.571Z,0
2018-12-04T00:08:39.563Z,0
2018-12-04T00:09:39.551Z,0
2018-12-04T00:10:39.547Z,0
2018-12-04T00:11:39.530Z,0
2018-12-04T00:12:39.527Z,0
2018-12-04T00:13:39.512Z,0
2018-12-04T00:14:39.501Z,0
2018-12-04T00:15:39.493Z,0
2018-12-04T00:16:39.835Z,0
2018-12-04T00:17:39.487Z,0
2018-12-04T00:18:39.466Z,0
2018-12-04T00:19:39.453Z,0
2018-12-04T00:20:39.448Z,0
2018-12-04T00:21:39.437Z,0
2018-12-04T00:22:39.428Z,0
2018-12-04T00:23:39.412Z,0
2018-12-04T00:24:39.401Z,0
2018-12-04T00:25:39.389Z,0
2018-12-04T00:26:39.385Z,0
2018-12-04T00:27:39.371Z,0
2018-12-04T00:28:39.363Z,0
2018-12-04T00:29:39.396Z,0
2018-12-04T00:30:39.344Z,0
2018-12-04T00:31:39.332Z,0
2018-12-04T00:32:39.325Z,0
2018-12-04T00:33:39.312Z,0
2018-12-04T00:34:39.306Z,0
2018-12-04T00:35:39.290Z,0
2018-12-04T00:36:39.286Z,0
2018-12-04T00:37:39.272Z,0
2018-12-04T00:38:39.277Z,0
2018-12-04T00:39:39.256Z,0
2018-12-04T00:40:39.245Z,0
2018-12-04T00:41:39.234Z,0
2018-12-04T00:42:39.226Z,0
2018-12-04T00:43:39.213Z,0
2018-12-04T00:44:39.212Z,0
2018-12-04T00:45:39.192Z,0
2018-12-04T00:46:39.194Z,0
2018-12-04T00:47:39.171Z,0
2018-12-04T00:48:39.165Z,0
2018-12-04T00:49:39.162Z,0
2018-12-04T00:50:39.144Z,0
2018-12-04T00:51:39.142Z,0
2018-12-04T00:52:39.126Z,0
2018-12-04T00:53:39.113Z,0
2018-12-04T00:54:39.111Z,0
2018-12-04T00:55:39.099Z,0
2018-12-04T00:56:39.088Z,0
2018-12-04T00:57:39.078Z,0
2018-12-04T00:58:39.068Z,0
2018-12-04T00:59:39.070Z,0
2018-12-04T01:00:38.805Z,0
2018-12-04T01:01:39.066Z,0
2018-12-04T01:02:39.033Z,0
2018-12-04T01:03:39.040Z,0
2018-12-04T01:04:39.010Z,0
2018-12-04T01:05:39.003Z,0
2018-12-04T01:06:38.991Z,0
2018-12-04T01:07:38.981Z,0
2018-12-04T01:08:38.976Z,0
2018-12-04T01:09:38.962Z,0
2018-12-04T01:10:38.958Z,0
2018-12-04T01:11:38.951Z,0
2018-12-04T01:12:38.935Z,0
2018-12-04T01:13:38.926Z,0
2018-12-04T01:14:38.913Z,0
2018-12-04T01:15:38.903Z,0
2018-12-04T01:16:38.899Z,0
2018-12-04T01:17:38.886Z,0
2018-12-04T01:18:38.890Z,0
2018-12-04T01:19:38.873Z,0
2018-12-04T01:20:38.870Z,0
2018-12-04T01:21:38.666Z,0
2018-12-04T01:22:38.848Z,0
2018-12-04T01:23:38.835Z,0
2018-12-04T01:24:38.817Z,0
2018-12-04T01:25:38.808Z,0
2018-12-04T01:26:38.800Z,0
2018-12-04T01:27:38.793Z,0
2018-12-04T01:28:38.798Z,0
2018-12-04T01:29:38.770Z,0
2018-12-04T01:30:38.763Z,0
2018-12-04T01:31:38.758Z,0
2018-12-04T01:32:38.497Z,0
2018-12-04T01:33:38.735Z,0
2018-12-04T01:34:38.734Z,0
2018-12-04T01:35:38.714Z,0
2018-12-04T01:36:38.705Z,0
2018-12-04T01:37:38.695Z,0
2018-12-04T01:38:38.688Z,0
2018-12-04T01:39:38.679Z,0
2018-12-04T01:40:38.669Z,0
2018-12-04T01:41:38.659Z,0
2018-12-04T01:42:38.653Z,0
2018-12-04T01:43:38.642Z,0
2018-12-04T01:44:38.627Z,0
2018-12-04T01:45:38.622Z,0
2018-12-04T01:46:38.617Z,0
2018-12-04T01:47:38.604Z,0
2018-12-04T01:48:38.601Z,0
2018-12-04T01:49:38.585Z,0
2018-12-04T01:50:38.378Z,0
2018-12-04T01:51:38.570Z,0
2018-12-04T01:52:38.562Z,0
2018-12-04T01:53:38.602Z,0
2018-12-04T01:54:38.539Z,0
2018-12-04T01:55:38.529Z,0
2018-12-04T01:56:38.524Z,0
2018-12-04T01:57:38.515Z,0
2018-12-04T01:58:38.494Z,0
2018-12-04T01:59:38.484Z,0
2018-12-04T02:00:38.487Z,0
2018-12-04T02:01:38.468Z,0
2018-12-04T02:02:38.464Z,0
2018-12-04T02:03:38.459Z,0
2018-12-04T02:04:38.442Z,0
2018-12-04T02:05:38.433Z,0
2018-12-04T02:06:38.424Z,0
2018-12-04T02:07:38.420Z,0
2018-12-04T02:08:38.408Z,0
2018-12-04T02:09:38.397Z,0
2018-12-04T02:10:38.388Z,0
2018-12-04T02:11:38.371Z,0
2018-12-04T02:12:38.370Z,0
2018-12-04T02:13:38.352Z,0
2018-12-04T02:14:38.113Z,0
2018-12-04T02:15:38.338Z,0
2018-12-04T02:16:38.370Z,0
2018-12-04T02:17:38.325Z,0
2018-12-04T02:18:38.339Z,0
2018-12-04T02:19:38.293Z,0
2018-12-04T02:20:38.286Z,0
2018-12-04T02:21:38.328Z,0
2018-12-04T02:22:38.305Z,0
2018-12-04T02:23:38.260Z,0
2018-12-04T02:24:38.296Z,0
2018-12-04T02:25:38.241Z,0
2018-12-04T02:26:38.236Z,0
2018-12-04T02:27:38.223Z,0
2018-12-04T02:28:38.209Z,0
2018-12-04T02:29:38.201Z,0
2018-12-04T02:30:38.238Z,0
2018-12-04T02:31:38.192Z,0
2018-12-04T02:32:38.198Z,0
2018-12-04T02:33:38.171Z,0
2018-12-04T02:34:37.921Z,0
2018-12-04T02:35:38.151Z,0
2018-12-04T02:36:38.134Z,0
2018-12-04T02:37:38.132Z,0
2018-12-04T02:38:38.129Z,0
2018-12-04T02:39:38.121Z,0
2018-12-04T02:40:38.108Z,0
2018-12-04T02:41:38.096Z,0
2018-12-04T02:42:38.087Z,0
2018-12-04T02:43:38.082Z,0
2018-12-04T02:44:38.062Z,0
2018-12-04T02:45:38.070Z,0
2018-12-04T02:46:38.040Z,0
2018-12-04T02:47:38.062Z,0
2018-12-04T02:48:38.047Z,0
2018-12-04T02:49:38.022Z,0
2018-12-04T02:50:38.016Z,0
2018-12-04T02:51:38.000Z,0
2018-12-04T02:52:38.042Z,0
2018-12-04T02:53:37.979Z,0
2018-12-04T02:54:37.973Z,0
2018-12-04T02:55:37.971Z,0
2018-12-04T02:56:37.949Z,0
2018-12-04T02:57:37.951Z,0
2018-12-04T02:58:37.927Z,0
2018-12-04T02:59:37.922Z,0
2018-12-04T03:00:37.679Z,0
2018-12-04T03:01:37.914Z,0
2018-12-04T03:02:37.901Z,0
2018-12-04T03:03:37.901Z,0
2018-12-04T03:04:37.882Z,0
2018-12-04T03:05:37.869Z,0
2018-12-04T03:06:37.854Z,0
2018-12-04T03:07:37.848Z,0
2018-12-04T03:08:37.841Z,0
2018-12-04T03:09:37.835Z,0
2018-12-04T03:10:37.826Z,0
2018-12-04T03:11:37.812Z,0
2018-12-04T03:12:37.800Z,0
2018-12-04T03:13:37.802Z,0
2018-12-04T03:14:37.788Z,0
2018-12-04T03:15:37.790Z,0
2018-12-04T03:16:37.770Z,0
2018-12-04T03:17:37.761Z,0
2018-12-04T03:18:37.743Z,0
2018-12-04T03:19:37.743Z,0
2018-12-04T03:20:37.755Z,0
2018-12-04T03:21:37.733Z,0
2018-12-04T03:22:37.712Z,0
2018-12-04T03:23:37.713Z,0
2018-12-04T03:24:37.693Z,0
2018-12-04T03:25:37.690Z,0
2018-12-04T03:26:37.671Z,0
2018-12-04T03:27:37.674Z,0
2018-12-04T03:28:37.657Z,0
2018-12-04T03:29:37.659Z,0
2018-12-04T03:30:37.666Z,0
2018-12-04T03:31:37.720Z,0
2018-12-04T03:32:37.642Z,0
2018-12-04T03:33:37.663Z,0
2018-12-04T03:34:37.613Z,0
2018-12-04T03:35:37.595Z,0
2018-12-04T03:36:37.637Z,0
2018-12-04T03:37:37.595Z,0
2018-12-04T03:38:37.566Z,0
2018-12-04T03:39:37.564Z,0
2018-12-04T03:40:37.565Z,0
2018-12-04T03:41:37.536Z,0
2018-12-04T03:42:37.544Z,0
2018-12-04T03:43:37.531Z,0
2018-12-04T03:44:37.512Z,0
2018-12-04T03:45:37.512Z,0
2018-12-04T03:46:37.498Z,0
2018-12-04T03:47:37.499Z,0
2018-12-04T03:48:37.497Z,0
2018-12-04T03:49:37.471Z,0
2018-12-04T03:50:37.459Z,0
2018-12-04T03:51:37.453Z,0
2018-12-04T03:52:37.215Z,0
2018-12-04T03:53:37.438Z,0
2018-12-04T03:54:37.435Z,0
2018-12-04T03:55:37.427Z,0
2018-12-04T03:56:37.415Z,0
2018-12-04T03:57:37.400Z,0
2018-12-04T03:58:37.392Z,0
2018-12-04T03:59:37.375Z,0
2018-12-04T04:00:37.367Z,0
2018-12-04T04:01:37.403Z,0
2018-12-04T04:02:37.349Z,0
2018-12-04T04:03:37.336Z,0
2018-12-04T04:04:37.329Z,0
2018-12-04T04:05:37.406Z,0
2018-12-04T04:06:37.315Z,0
2018-12-04T04:07:37.315Z,0
2018-12-04T04:08:37.057Z,0
2018-12-04T04:09:37.334Z,0
2018-12-04T04:10:37.286Z,0
2018-12-04T04:11:37.279Z,0
2018-12-04T04:12:37.263Z,0
2018-12-04T04:13:37.256Z,0
2018-12-04T04:14:37.239Z,0
2018-12-04T04:15:37.234Z,0
2018-12-04T04:16:37.224Z,0
2018-12-04T04:17:37.208Z,0
2018-12-04T04:18:37.215Z,0
2018-12-04T04:19:37.192Z,0
2018-12-04T04:20:37.191Z,0
2018-12-04T04:21:37.233Z,0
2018-12-04T04:22:37.164Z,0
2018-12-04T04:23:37.148Z,0
2018-12-04T04:24:37.142Z,0
2018-12-04T04:25:37.163Z,0
2018-12-04T04:26:37.131Z,0
2018-12-04T04:27:37.111Z,0
2018-12-04T04:28:37.109Z,0
2018-12-04T04:29:37.093Z,0
2018-12-04T04:30:37.087Z,0
2018-12-04T04:31:37.086Z,0
2018-12-04T04:32:37.063Z,0
2018-12-04T04:33:36.818Z,0
2018-12-04T04:34:37.040Z,0
2018-12-04T04:35:37.036Z,0
2018-12-04T04:36:37.020Z,0
2018-12-04T04:37:37.013Z,0
2018-12-04T04:38:37.001Z,0
2018-12-04T04:39:36.752Z,0
2018-12-04T04:40:36.991Z,0
2018-12-04T04:41:36.975Z,0
2018-12-04T04:42:36.966Z,0
2018-12-04T04:43:36.957Z,0
2018-12-04T04:44:36.937Z,0
2018-12-04T04:45:36.941Z,0
2018-12-04T04:46:36.928Z,0
2018-12-04T04:47:36.915Z,0
2018-12-04T04:48:36.936Z,0
2018-12-04T04:49:36.890Z,0
2018-12-04T04:50:36.910Z,0
2018-12-04T04:51:36.877Z,0
2018-12-04T04:52:36.880Z,0
2018-12-04T04:53:36.858Z,0
2018-12-04T04:54:36.848Z,0
2018-12-04T04:55:36.826Z,0
2018-12-04T04:56:36.874Z,0
2018-12-04T04:57:36.816Z,0
2018-12-04T04:58:36.795Z,0
2018-12-04T04:59:36.785Z,0
2018-12-04T05:00:36.825Z,0
2018-12-04T05:01:36.762Z,0
2018-12-04T05:02:36.766Z,0
2018-12-04T05:03:36.745Z,0
2018-12-04T05:04:36.735Z,0
2018-12-04T05:05:36.745Z,0
2018-12-04T05:06:36.720Z,0
2018-12-04T05:07:36.708Z,0
2018-12-04T05:08:36.720Z,0
2018-12-04T05:09:36.690Z,0
2018-12-04T05:10:36.670Z,0
2018-12-04T05:11:36.670Z,0
2018-12-04T05:12:36.651Z,0
2018-12-04T05:13:36.659Z,0
2018-12-04T05:14:36.639Z,0
2018-12-04T05:15:36.638Z,0
2018-12-04T05:16:36.623Z,0
2018-12-04T05:17:36.598Z,0
2018-12-04T05:18:36.613Z,0
2018-12-04T05:19:36.584Z,0
2018-12-04T05:20:36.565Z,0
2018-12-04T05:21:36.555Z,0
2018-12-04T05:22:36.546Z,0
2018-12-04T05:23:36.538Z,0
2018-12-04T05:24:36.526Z,0
2018-12-04T05:25:36.514Z,0
2018-12-04T05:26:36.501Z,0
2018-12-04T05:27:36.496Z,0
2018-12-04T05:28:36.503Z,0
2018-12-04T05:29:36.482Z,0
2018-12-04T05:30:36.465Z,0
2018-12-04T05:31:36.456Z,0
2018-12-04T05:32:36.440Z,0
2018-12-04T05:33:36.440Z,0
2018-12-04T05:34:36.422Z,0
2018-12-04T05:35:36.420Z,0
2018-12-04T05:36:36.423Z,0
2018-12-04T05:37:36.391Z,0
2018-12-04T05:38:36.375Z,0
2018-12-04T05:39:36.373Z,0
2018-12-04T05:40:36.400Z,0
2018-12-04T05:41:36.347Z,0
2018-12-04T05:42:36.337Z,0
2018-12-04T05:43:36.346Z,0
2018-12-04T05:44:36.316Z,0
2018-12-04T05:45:36.305Z,0
2018-12-04T05:46:36.293Z,0
2018-12-04T05:47:36.292Z,0
2018-12-04T05:48:36.279Z,0
2018-12-04T05:49:36.319Z,0
2018-12-04T05:50:36.264Z,0
2018-12-04T05:51:36.242Z,0
2018-12-04T05:52:36.227Z,0
2018-12-04T05:53:36.224Z,0
2018-12-04T05:54:36.211Z,0
2018-12-04T05:55:36.202Z,0
2018-12-04T05:56:35.951Z,0
2018-12-04T05:57:36.182Z,0
2018-12-04T05:58:36.175Z,0
2018-12-04T05:59:36.195Z,0
2018-12-04T06:00:36.153Z,0
2018-12-04T06:01:36.137Z,0
2018-12-04T06:02:36.126Z,0
2018-12-04T06:03:36.120Z,0
2018-12-04T06:04:36.118Z,0
2018-12-04T06:05:36.096Z,0
2018-12-04T06:06:36.087Z,0
2018-12-04T06:07:36.070Z,0
2018-12-04T06:08:36.063Z,0
2018-12-04T06:09:36.051Z,0
2018-12-04T06:10:36.043Z,0
2018-12-04T06:11:36.035Z,0
2018-12-04T06:12:36.027Z,0
2018-12-04T06:13:36.012Z,0
2018-12-04T06:14:35.997Z,0
2018-12-04T06:15:35.988Z,0
2018-12-04T06:16:35.976Z,0
2018-12-04T06:17:35.969Z,0
2018-12-04T06:18:35.960Z,0
2018-12-04T06:19:35.943Z,0
2018-12-04T06:20:35.941Z,0
2018-12-04T06:21:35.932Z,0
2018-12-04T06:22:35.913Z,0
2018-12-04T06:23:35.934Z,0
2018-12-04T06:24:35.897Z,0
2018-12-04T06:25:35.887Z,0
2018-12-04T06:26:36.110Z,0
2018-12-04T06:27:35.896Z,0
2018-12-04T06:28:35.851Z,0
2018-12-04T06:29:35.849Z,0
2018-12-04T06:30:35.838Z,0
2018-12-04T06:31:35.831Z,0
2018-12-04T06:32:35.852Z,0
2018-12-04T06:33:35.809Z,0
2018-12-04T06:34:35.792Z,0
2018-12-04T06:35:35.785Z,0
2018-12-04T06:36:35.778Z,0
2018-12-04T06:37:35.762Z,0
2018-12-04T06:38:35.751Z,0
2018-12-04T06:39:35.739Z,0
2018-12-04T06:40:35.729Z,0
2018-12-04T06:41:35.725Z,0
2018-12-04T06:42:35.707Z,0
2018-12-04T06:43:35.696Z,0
2018-12-04T06:44:35.691Z,0
2018-12-04T06:45:35.678Z,0
2018-12-04T06:46:35.666Z,0
2018-12-04T06:47:35.656Z,0
2018-12-04T06:48:35.658Z,0
2018-12-04T06:49:35.639Z,0
2018-12-04T06:50:35.622Z,0
2018-12-04T06:51:35.620Z,5
2018-12-04T06:52:35.607Z,5
2018-12-04T06:53:35.591Z,5
2018-12-04T06:54:35.585Z,5
2018-12-04T06:55:35.577Z,5
2018-12-04T06:56:35.569Z,5
2018-12-04T06:57:35.552Z,5
2018-12-04T06:58:35.542Z,5
2018-12-04T06:59:35.847Z,10
2018-12-04T07:00:35.528Z,10
2018-12-04T07:01:35.508Z,10
2018-12-04T07:02:35.495Z,10
2018-12-04T07:03:35.491Z,10
2018-12-04T07:04:35.482Z,10
2018-12-04T07:05:36.767Z,15
2018-12-04T07:06:35.466Z,15
2018-12-04T07:07:35.445Z,15
2018-12-04T07:08:35.435Z,15
2018-12-04T07:09:35.431Z,15
2018-12-04T07:10:35.416Z,15
2018-12-04T07:11:35.402Z,15
2018-12-04T07:12:35.390Z,20
2018-12-04T07:13:35.382Z,25
2018-12-04T07:14:35.368Z,25
2018-12-04T07:15:35.117Z,25
2018-12-04T07:16:35.348Z,25
2018-12-04T07:17:35.340Z,20
2018-12-04T07:18:35.324Z,20
2018-12-04T07:19:35.321Z,20
2018-12-04T07:20:35.314Z,25
2018-12-04T07:21:35.297Z,20
2018-12-04T07:22:35.291Z,25
2018-12-04T07:23:35.278Z,30
2018-12-04T07:24:35.274Z,30
2018-12-04T07:25:35.260Z,25
2018-12-04T07:26:35.246Z,20
2018-12-04T07:27:35.240Z,20
2018-12-04T07:28:35.227Z,30
2018-12-04T07:29:35.214Z,35
2018-12-04T07:30:35.202Z,35
2018-12-04T07:31:35.195Z,35
2018-12-04T07:32:40.960Z,35
2018-12-04T07:33:35.166Z,35
2018-12-04T07:34:35.162Z,30
2018-12-04T07:35:35.155Z,40
2018-12-04T07:36:35.151Z,40
2018-12-04T07:37:35.132Z,40
2018-12-04T07:38:35.116Z,40
2018-12-04T07:39:35.109Z,45
2018-12-04T07:40:35.097Z,50
2018-12-04T07:41:35.085Z,45
2018-12-04T07:42:35.076Z,35
2018-12-04T07:43:35.071Z,40
2018-12-04T07:44:35.062Z,40
2018-12-04T07:45:35.048Z,40
2018-12-04T07:46:35.040Z,45
2018-12-04T07:47:35.021Z,50
2018-12-04T07:48:35.009Z,50
2018-12-04T07:49:35.007Z,55
2018-12-04T07:50:35.001Z,60
2018-12-04T07:51:35.251Z,60
2018-12-04T07:52:35.008Z,60
2018-12-04T07:53:34.959Z,65
2018-12-04T07:54:34.949Z,65
2018-12-04T07:55:34.701Z,70
2018-12-04T07:56:34.927Z,70
2018-12-04T07:57:34.926Z,80
2018-12-04T07:58:34.908Z,85
2018-12-04T07:59:34.904Z,80
2018-12-04T08:00:34.905Z,75
2018-12-04T08:01:34.872Z,80
2018-12-04T08:02:34.868Z,80
2018-12-04T08:03:35.420Z,80
2018-12-04T08:04:34.855Z,85
2018-12-04T08:05:34.835Z,85
2018-12-04T08:06:34.818Z,95
2018-12-04T08:07:34.812Z,105
2018-12-04T08:08:34.796Z,95
2018-12-04T08:09:34.795Z,90
2018-12-04T08:10:34.786Z,95
2018-12-04T08:11:34.768Z,100
2018-12-04T08:12:34.759Z,105
2018-12-04T08:13:34.742Z,100
2018-12-04T08:14:34.742Z,90
2018-12-04T08:15:34.727Z,90
2018-12-04T08:16:34.827Z,95
2018-12-04T08:17:34.699Z,95
2018-12-04T08:18:34.688Z,100
2018-12-04T08:19:34.684Z,115
2018-12-04T08:20:34.671Z,115
2018-12-04T08:21:34.674Z,125
2018-12-04T08:22:34.650Z,150
2018-12-04T08:23:34.634Z,160
2018-12-04T08:24:34.652Z,125
2018-12-04T08:25:34.616Z,110
2018-12-04T08:26:34.614Z,100
2018-12-04T08:27:34.596Z,105
2018-12-04T08:28:34.581Z,125
2018-12-04T08:29:34.571Z,120
2018-12-04T08:30:34.564Z,125
2018-12-04T08:31:34.545Z,120
2018-12-04T08:32:34.545Z,110
2018-12-04T08:33:34.532Z,115
2018-12-04T08:34:34.520Z,120
2018-12-04T08:35:34.264Z,135
2018-12-04T08:36:34.504Z,135
2018-12-04T08:37:34.487Z,110
2018-12-04T08:38:34.474Z,120
2018-12-04T08:39:34.468Z,115
2018-12-04T08:40:34.451Z,100
2018-12-04T08:41:34.439Z,105
2018-12-04T08:42:34.428Z,115
2018-12-04T08:43:34.823Z,90
2018-12-04T08:44:34.418Z,95
2018-12-04T08:45:34.410Z,115
2018-12-04T08:46:34.392Z,140
2018-12-04T08:47:34.388Z,165
2018-12-04T08:48:34.372Z,160
2018-12-04T08:49:34.365Z,120
2018-12-04T08:50:34.355Z,100
2018-12-04T08:51:34.343Z,115
2018-12-04T08:52:34.337Z,130
2018-12-04T08:53:34.321Z,130
2018-12-04T08:54:35.024Z,145
2018-12-04T08:55:34.305Z,155
2018-12-04T08:56:34.291Z,125
2018-12-04T08:57:34.042Z,125
2018-12-04T08:58:34.029Z,155
2018-12-04T08:59:34.262Z,190
2018-12-04T09:00:34.248Z,150
2018-12-04T09:01:34.237Z,120
2018-12-04T09:02:34.226Z,130
2018-12-04T09:03:34.225Z,135
2018-12-04T09:04:34.217Z,155
2018-12-04T09:05:34.203Z,135
2018-12-04T09:06:34.192Z,145
2018-12-04T09:07:34.189Z,150
2018-12-04T09:08:34.181Z,160
2018-12-04T09:09:34.160Z,160
2018-12-04T09:10:34.155Z,170
2018-12-04T09:11:34.145Z,170
2018-12-04T09:12:34.128Z,160
2018-12-04T09:13:34.118Z,150
2018-12-04T09:14:38.135Z,145
2018-12-04T09:15:34.107Z,140
2018-12-04T09:16:34.090Z,145
2018-12-04T09:17:34.087Z,150
2018-12-04T09:18:34.190Z,130
2018-12-04T09:19:34.207Z,125
2018-12-04T09:20:34.386Z,140
2018-12-04T09:21:34.373Z,130
2018-12-04T09:22:34.245Z,130
2018-12-04T09:23:34.120Z,130
2018-12-04T09:24:40.492Z,135
2018-12-04T09:25:34.217Z,145
2018-12-04T09:26:34.273Z,155
2018-12-04T09:27:34.195Z,150
2018-12-04T09:28:34.183Z,170
2018-12-04T09:29:34.170Z,205
2018-12-04T09:30:33.993Z,205
2018-12-04T09:31:33.949Z,195
2018-12-04T09:32:33.944Z,160
2018-12-04T09:33:33.963Z,140
2018-12-04T09:34:39.385Z,165
2018-12-04T09:35:33.909Z,190
2018-12-04T09:36:33.902Z,155
2018-12-04T09:37:33.891Z,135
2018-12-04T09:38:33.884Z,140
2018-12-04T09:39:33.870Z,145
2018-12-04T09:40:33.865Z,145
2018-12-04T09:41:33.851Z,145
2018-12-04T09:42:33.843Z,150
2018-12-04T09:43:33.835Z,135
2018-12-04T09:44:33.956Z,140
2018-12-04T09:45:33.814Z,145
2018-12-04T09:46:33.805Z,145
2018-12-04T09:47:33.800Z,180
2018-12-04T09:48:33.790Z,205
2018-12-04T09:49:33.782Z,190
2018-12-04T09:50:33.826Z,180
2018-12-04T09:51:33.775Z,225
2018-12-04T09:52:33.756Z,195
2018-12-04T09:53:34.807Z,165
2018-12-04T09:54:33.734Z,145
2018-12-04T09:55:33.723Z,165
2018-12-04T09:56:33.721Z,160
2018-12-04T09:57:33.765Z,170
2018-12-04T09:58:33.697Z,175
2018-12-04T09:59:39.335Z,145
2018-12-04T10:00:33.733Z,130
2018-12-04T10:01:33.665Z,130
2018-12-04T10:02:33.695Z,130
2018-12-04T10:03:33.647Z,135
2018-12-04T10:04:33.642Z,150
2018-12-04T10:05:34.578Z,190
2018-12-04T10:06:33.621Z,215
2018-12-04T10:07:33.614Z,155
2018-12-04T10:08:34.161Z,135
2018-12-04T10:09:33.636Z,130
2018-12-04T10:10:33.589Z,130
2018-12-04T10:11:33.697Z,135
2018-12-04T10:12:33.571Z,130
2018-12-04T10:13:33.552Z,140
2018-12-04T10:14:33.553Z,145
2018-12-04T10:15:33.549Z,160
2018-12-04T10:16:33.293Z,200
2018-12-04T10:17:33.515Z,185
2018-12-04T10:18:33.628Z,180
2018-12-04T10:19:34.736Z,180
2018-12-04T10:20:33.500Z,195
2018-12-04T10:21:33.484Z,205
2018-12-04T10:22:33.470Z,210
2018-12-04T10:23:33.472Z,215
2018-12-04T10:24:33.459Z,200
2018-12-04T10:25:33.446Z,185
2018-12-04T10:26:33.436Z,195
2018-12-04T10:27:33.429Z,215
2018-12-04T10:28:33.421Z,220
2018-12-04T10:29:33.437Z,225
2018-12-04T10:30:33.404Z,250
2018-12-04T10:31:33.394Z,260
2018-12-04T10:32:33.387Z,245
2018-12-04T10:33:33.371Z,230
2018-12-04T10:34:33.367Z,250
2018-12-04T10:35:33.352Z,250
2018-12-04T10:36:33.395Z,255
2018-12-04T10:37:33.353Z,210
2018-12-04T10:38:33.327Z,205
2018-12-04T10:39:33.323Z,215
2018-12-04T10:40:33.311Z,245
2018-12-04T10:41:33.300Z,235
2018-12-04T10:42:33.292Z,210
2018-12-04T10:43:33.290Z,240
2018-12-04T10:44:34.072Z,245
2018-12-04T10:45:33.269Z,215
2018-12-04T10:46:33.283Z,200
2018-12-04T10:47:33.249Z,210
2018-12-04T10:48:33.246Z,245
2018-12-04T10:49:33.235Z,275
2018-12-04T10:50:33.231Z,290
2018-12-04T10:51:33.213Z,250
2018-12-04T10:52:33.207Z,205
2018-12-04T10:53:33.200Z,170
2018-12-04T10:54:32.944Z,170
2018-12-04T10:55:33.185Z,190
2018-12-04T10:56:33.189Z,190
2018-12-04T10:57:33.169Z,190
2018-12-04T10:58:33.171Z,185
2018-12-04T10:59:33.150Z,175
2018-12-04T11:00:33.159Z,175
2018-12-04T11:01:33.136Z,190
2018-12-04T11:02:33.129Z,200
2018-12-04T11:03:33.117Z,200
2018-12-04T11:04:33.111Z,210
2018-12-04T11:05:33.222Z,225
2018-12-04T11:06:33.099Z,225
2018-12-04T11:07:33.083Z,220
2018-12-04T11:08:33.084Z,195
2018-12-04T11:09:33.069Z,175
2018-12-04T11:10:33.059Z,170
2018-12-04T11:11:33.061Z,190
2018-12-04T11:12:33.047Z,210
2018-12-04T11:13:33.035Z,195
2018-12-04T11:14:33.027Z,175
2018-12-04T11:15:33.020Z,185
2018-12-04T11:16:33.020Z,190
2018-12-04T11:17:33.009Z,175
2018-12-04T11:18:32.996Z,175
2018-12-04T11:19:33.874Z,185
2018-12-04T11:20:32.995Z,205
2018-12-04T11:21:32.979Z,225
2018-12-04T11:22:32.974Z,250
2018-12-04T11:23:32.959Z,275
2018-12-04T11:24:32.948Z,230
2018-12-04T11:25:32.944Z,165
2018-12-04T11:26:32.935Z,135
2018-12-04T11:27:32.924Z,125
2018-12-04T11:28:32.923Z,125
2018-12-04T11:29:32.919Z,145
2018-12-04T11:30:32.910Z,175
2018-12-04T11:31:32.886Z,170
2018-12-04T11:32:32.881Z,160
2018-12-04T11:33:32.873Z,165
2018-12-04T11:34:32.862Z,185
2018-12-04T11:35:32.861Z,190
2018-12-04T11:36:32.846Z,200
2018-12-04T11:37:32.856Z,200
2018-12-04T11:38:32.832Z,230
2018-12-04T11:39:32.826Z,260
2018-12-04T11:40:32.814Z,280
2018-12-04T11:41:33.698Z,260
2018-12-04T11:42:32.796Z,230
2018-12-04T11:43:32.794Z,205
2018-12-04T11:44:33.631Z,180
2018-12-04T11:45:32.770Z,185
2018-12-04T11:46:32.762Z,180
2018-12-04T11:47:32.760Z,180
2018-12-04T11:48:32.748Z,210
2018-12-04T11:49:32.742Z,205
2018-12-04T11:50:32.729Z,220
2018-12-04T11:51:32.721Z,235
2018-12-04T11:52:32.713Z,210
2018-12-04T11:53:32.706Z,185
2018-12-04T11:54:32.695Z,170
2018-12-04T11:55:32.698Z,175
2018-12-04T11:56:32.680Z,200
2018-12-04T11:57:32.669Z,200
2018-12-04T11:58:32.659Z,190
2018-12-04T11:59:32.673Z,205
2018-12-04T12:00:32.649Z,235
2018-12-04T12:01:32.645Z,230
2018-12-04T12:02:32.629Z,195
2018-12-04T12:03:32.617Z,165
2018-12-04T12:04:32.624Z,155
2018-12-04T12:05:32.636Z,160
2018-12-04T12:06:32.602Z,170
2018-12-04T12:07:32.595Z,175
2018-12-04T12:08:32.583Z,180
2018-12-04T12:09:32.326Z,205
2018-12-04T12:10:32.334Z,195
2018-12-04T12:11:32.551Z,175
2018-12-04T12:12:32.555Z,185
2018-12-04T12:13:32.535Z,195
2018-12-04T12:14:32.526Z,200
2018-12-04T12:15:32.523Z,205
2018-12-04T12:16:32.526Z,205
2018-12-04T12:17:32.501Z,235
2018-12-04T12:18:32.493Z,255
2018-12-04T12:19:32.487Z,240
2018-12-04T12:20:32.481Z,210
2018-12-04T12:21:32.466Z,210
2018-12-04T12:22:32.471Z,180
2018-12-04T12:23:32.453Z,150
2018-12-04T12:24:32.443Z,135
2018-12-04T12:25:32.462Z,130
2018-12-04T12:26:32.428Z,135
2018-12-04T12:27:32.425Z,160
2018-12-04T12:28:32.416Z,165
2018-12-04T12:29:32.400Z,145
2018-12-04T12:30:32.393Z,140
2018-12-04T12:31:32.395Z,145
2018-12-04T12:32:32.382Z,140
2018-12-04T12:33:32.367Z,135
2018-12-04T12:34:33.043Z,130
2018-12-04T12:35:32.352Z,125
2018-12-04T12:36:32.339Z,125
2018-12-04T12:37:32.334Z,120
2018-12-04T12:38:32.347Z,120
2018-12-04T12:39:32.330Z,120
2018-12-04T12:40:32.307Z,135
2018-12-04T12:41:32.302Z,160
2018-12-04T12:42:32.288Z,155
2018-12-04T12:43:32.320Z,140
2018-12-04T12:44:32.311Z,125
2018-12-04T12:45:32.267Z,135
2018-12-04T12:46:32.257Z,175
2018-12-04T12:47:32.244Z,215
2018-12-04T12:48:32.238Z,220
2018-12-04T12:49:32.238Z,190
2018-12-04T12:50:32.223Z,200
2018-12-04T12:51:32.216Z,245
2018-12-04T12:52:32.201Z,215
2018-12-04T12:53:32.189Z,165
2018-12-04T12:54:32.185Z,145
2018-12-04T12:55:32.184Z,130
2018-12-04T12:56:32.171Z,125
2018-12-04T12:57:32.155Z,120
2018-12-04T12:58:32.144Z,130
2018-12-04T12:59:32.144Z,130
2018-12-04T13:00:32.125Z,130
2018-12-04T13:01:32.123Z,140
2018-12-04T13:02:32.108Z,150
2018-12-04T13:03:32.119Z,135
2018-12-04T13:04:32.098Z,130
2018-12-04T13:05:32.090Z,130
2018-12-04T13:06:32.129Z,120
2018-12-04T13:07:32.072Z,110
2018-12-04T13:08:32.067Z,110
2018-12-04T13:09:32.056Z,105
2018-12-04T13:10:32.061Z,105
2018-12-04T13:11:32.038Z,110
2018-12-04T13:12:32.016Z,130
2018-12-04T13:13:36.727Z,130
2018-12-04T13:14:32.014Z,120
2018-12-04T13:15:32.003Z,130
2018-12-04T13:16:32.476Z,145
2018-12-04T13:17:31.991Z,130
2018-12-04T13:18:31.981Z,105
2018-12-04T13:19:31.979Z,100
2018-12-04T13:20:32.252Z,95
2018-12-04T13:21:31.950Z,90
2018-12-04T13:22:31.949Z,95
2018-12-04T13:23:31.938Z,95
2018-12-04T13:24:31.906Z,100
2018-12-04T13:25:31.903Z,105
2018-12-04T13:26:31.896Z,95
2018-12-04T13:27:31.904Z,90
2018-12-04T13:28:31.875Z,85
2018-12-04T13:29:31.882Z,85
2018-12-04T13:30:31.890Z,85
2018-12-04T13:31:32.017Z,90
2018-12-04T13:32:31.857Z,100
2018-12-04T13:33:31.883Z,100
2018-12-04T13:34:31.847Z,95
2018-12-04T13:35:31.843Z,95
2018-12-04T13:36:31.810Z,95
2018-12-04T13:37:31.784Z,85
2018-12-04T13:38:31.806Z,80
2018-12-04T13:39:31.768Z,65
2018-12-04T13:40:31.772Z,55
2018-12-04T13:41:31.840Z,65
2018-12-04T13:42:31.775Z,60
2018-12-04T13:43:31.746Z,50
2018-12-04T13:44:31.809Z,35
2018-12-04T13:45:31.495Z,25
2018-12-04T13:46:31.701Z,20
2018-12-04T13:47:31.701Z,20
2018-12-04T13:48:31.716Z,30
2018-12-04T13:49:31.655Z,35
2018-12-04T13:50:31.694Z,45
2018-12-04T13:51:31.654Z,50
2018-12-04T13:52:31.678Z,45
2018-12-04T13:53:31.698Z,50
2018-12-04T13:54:31.647Z,55
2018-12-04T13:55:31.628Z,70
2018-12-04T13:56:31.624Z,75
2018-12-04T13:57:31.589Z,75
2018-12-04T13:58:31.616Z,70
2018-12-04T13:59:31.608Z,65
2018-12-04T14:00:31.565Z,60
2018-12-04T14:01:31.564Z,60
2018-12-04T14:02:31.534Z,60
2018-12-04T14:03:31.541Z,60
2018-12-04T14:04:31.523Z,60
2018-12-04T14:05:31.595Z,60
2018-12-04T14:06:31.527Z,55
2018-12-04T14:07:31.507Z,55
2018-12-04T14:08:31.535Z,55
2018-12-04T14:09:35.586Z,55
2018-12-04T14:10:31.492Z,55
2018-12-04T14:11:31.456Z,50
2018-12-04T14:12:31.462Z,50
2018-12-04T14:13:31.440Z,50
2018-12-04T14:14:31.447Z,50
2018-12-04T14:15:31.458Z,50
2018-12-04T14:16:31.412Z,45
2018-12-04T14:17:31.435Z,45
2018-12-04T14:18:31.369Z,45
2018-12-04T14:19:31.389Z,45